sensor_id;sensor_type;location;lat;lon;timestamp;temperature;humidity
51007;DHT22;37034;47.886;-3.904;2023-04-06T00:01:38;13.70;93.60
51007;DHT22;37034;47.886;-3.904;2023-04-06T00:04:04;13.70;93.40
51007;DHT22;37034;47.886;-3.904;2023-04-06T00:06:30;13.80;93.50
51007;DHT22;37034;47.886;-3.904;2023-04-06T00:08:57;13.80;93.50
51007;DHT22;37034;47.886;-3.904;2023-04-06T00:11:23;13.80;93.50
51007;DHT22;37034;47.886;-3.904;2023-04-06T00:13:50;13.90;93.50
51007;DHT22;37034;47.886;-3.904;2023-04-06T00:16:16;13.80;93.50
51007;DHT22;37034;47.886;-3.904;2023-04-06T00:18:41;13.90;93.60
51007;DHT22;37034;47.886;-3.904;2023-04-06T00:21:07;13.90;93.70
51007;DHT22;37034;47.886;-3.904;2023-04-06T00:23:33;13.90;93.70
51007;DHT22;37034;47.886;-3.904;2023-04-06T00:25:59;13.90;93.70
51007;DHT22;37034;47.886;-3.904;2023-04-06T00:28:24;14.00;93.70
51007;DHT22;37034;47.886;-3.904;2023-04-06T00:30:54;14.00;93.70
51007;DHT22;37034;47.886;-3.904;2023-04-06T00:33:21;14.00;94.10
51007;DHT22;37034;47.886;-3.904;2023-04-06T00:35:47;14.00;93.70
51007;DHT22;37034;47.886;-3.904;2023-04-06T00:38:14;14.00;93.70
51007;DHT22;37034;47.886;-3.904;2023-04-06T00:40:40;14.00;93.80
51007;DHT22;37034;47.886;-3.904;2023-04-06T00:43:06;14.00;93.80
51007;DHT22;37034;47.886;-3.904;2023-04-06T00:45:33;14.00;93.90
51007;DHT22;37034;47.886;-3.904;2023-04-06T00:47:59;14.00;94.00
51007;DHT22;37034;47.886;-3.904;2023-04-06T00:50:25;14.10;94.00
51007;DHT22;37034;47.886;-3.904;2023-04-06T00:52:50;14.10;94.00
51007;DHT22;37034;47.886;-3.904;2023-04-06T00:55:17;14.10;94.00
51007;DHT22;37034;47.886;-3.904;2023-04-06T00:57:43;14.10;94.00
51007;DHT22;37034;47.886;-3.904;2023-04-06T01:00:09;14.10;94.00
51007;DHT22;37034;47.886;-3.904;2023-04-06T01:02:35;14.10;94.00
51007;DHT22;37034;47.886;-3.904;2023-04-06T01:05:01;14.10;94.10
51007;DHT22;37034;47.886;-3.904;2023-04-06T01:07:27;14.20;94.20
51007;DHT22;37034;47.886;-3.904;2023-04-06T01:09:56;14.20;94.20
51007;DHT22;37034;47.886;-3.904;2023-04-06T01:12:22;14.20;94.10
51007;DHT22;37034;47.886;-3.904;2023-04-06T01:14:47;14.20;94.10
51007;DHT22;37034;47.886;-3.904;2023-04-06T01:17:13;14.20;94.10
51007;DHT22;37034;47.886;-3.904;2023-04-06T01:19:39;14.20;94.10
51007;DHT22;37034;47.886;-3.904;2023-04-06T01:22:06;14.20;94.10
51007;DHT22;37034;47.886;-3.904;2023-04-06T01:24:32;14.20;94.10
51007;DHT22;37034;47.886;-3.904;2023-04-06T01:26:58;14.30;94.10
51007;DHT22;37034;47.886;-3.904;2023-04-06T01:29:24;14.30;94.50
51007;DHT22;37034;47.886;-3.904;2023-04-06T01:31:50;14.30;94.20
51007;DHT22;37034;47.886;-3.904;2023-04-06T01:34:16;14.30;94.20
51007;DHT22;37034;47.886;-3.904;2023-04-06T01:36:42;14.30;94.30
51007;DHT22;37034;47.886;-3.904;2023-04-06T01:39:07;14.30;94.30
51007;DHT22;37034;47.886;-3.904;2023-04-06T01:41:33;14.30;94.40
51007;DHT22;37034;47.886;-3.904;2023-04-06T01:43:59;14.30;94.30
51007;DHT22;37034;47.886;-3.904;2023-04-06T01:46:25;14.30;94.40
51007;DHT22;37034;47.886;-3.904;2023-04-06T01:48:51;14.30;94.40
51007;DHT22;37034;47.886;-3.904;2023-04-06T01:51:17;14.30;94.30
51007;DHT22;37034;47.886;-3.904;2023-04-06T01:53:43;14.30;94.40
51007;DHT22;37034;47.886;-3.904;2023-04-06T01:56:09;14.30;94.40
51007;DHT22;37034;47.886;-3.904;2023-04-06T01:58:35;14.30;94.40
51007;DHT22;37034;47.886;-3.904;2023-04-06T02:01:01;14.40;94.50
51007;DHT22;37034;47.886;-3.904;2023-04-06T02:03:26;14.40;94.50
51007;DHT22;37034;47.886;-3.904;2023-04-06T02:05:52;14.40;94.50
51007;DHT22;37034;47.886;-3.904;2023-04-06T02:08:18;14.40;94.50
51007;DHT22;37034;47.886;-3.904;2023-04-06T02:10:44;14.40;94.60
51007;DHT22;37034;47.886;-3.904;2023-04-06T02:13:09;14.40;94.80
51007;DHT22;37034;47.886;-3.904;2023-04-06T02:15:35;14.40;94.50
51007;DHT22;37034;47.886;-3.904;2023-04-06T02:18:01;14.40;94.60
51007;DHT22;37034;47.886;-3.904;2023-04-06T02:20:27;14.40;94.60
51007;DHT22;37034;47.886;-3.904;2023-04-06T02:22:52;14.40;94.60
51007;DHT22;37034;47.886;-3.904;2023-04-06T02:25:18;14.40;94.50
51007;DHT22;37034;47.886;-3.904;2023-04-06T02:27:44;14.40;94.70
51007;DHT22;37034;47.886;-3.904;2023-04-06T02:30:10;14.40;94.70
51007;DHT22;37034;47.886;-3.904;2023-04-06T02:32:36;14.40;94.80
51007;DHT22;37034;47.886;-3.904;2023-04-06T02:35:02;14.30;94.90
51007;DHT22;37034;47.886;-3.904;2023-04-06T02:37:28;14.40;94.90
51007;DHT22;37034;47.886;-3.904;2023-04-06T02:39:53;14.40;94.80
51007;DHT22;37034;47.886;-3.904;2023-04-06T02:42:19;14.40;94.90
51007;DHT22;37034;47.886;-3.904;2023-04-06T02:44:45;14.40;94.90
51007;DHT22;37034;47.886;-3.904;2023-04-06T02:47:11;14.40;95.00
51007;DHT22;37034;47.886;-3.904;2023-04-06T02:49:37;14.40;95.00
51007;DHT22;37034;47.886;-3.904;2023-04-06T02:52:03;14.40;95.00
51007;DHT22;37034;47.886;-3.904;2023-04-06T02:54:28;14.40;95.10
51007;DHT22;37034;47.886;-3.904;2023-04-06T02:56:54;14.40;95.10
51007;DHT22;37034;47.886;-3.904;2023-04-06T02:59:20;14.50;95.10
51007;DHT22;37034;47.886;-3.904;2023-04-06T03:01:46;14.50;95.20
51007;DHT22;37034;47.886;-3.904;2023-04-06T03:04:12;14.50;95.20
51007;DHT22;37034;47.886;-3.904;2023-04-06T03:06:37;14.50;95.20
51007;DHT22;37034;47.886;-3.904;2023-04-06T03:09:03;14.50;95.30
51007;DHT22;37034;47.886;-3.904;2023-04-06T03:11:29;14.50;95.30
51007;DHT22;37034;47.886;-3.904;2023-04-06T03:13:55;14.50;95.40
51007;DHT22;37034;47.886;-3.904;2023-04-06T03:16:21;14.50;95.60
51007;DHT22;37034;47.886;-3.904;2023-04-06T03:18:46;14.50;95.50
51007;DHT22;37034;47.886;-3.904;2023-04-06T03:21:15;14.50;95.50
51007;DHT22;37034;47.886;-3.904;2023-04-06T03:23:42;14.50;95.60
51007;DHT22;37034;47.886;-3.904;2023-04-06T03:26:08;14.50;95.60
51007;DHT22;37034;47.886;-3.904;2023-04-06T03:28:34;14.50;95.60
51007;DHT22;37034;47.886;-3.904;2023-04-06T03:31:00;14.50;95.70
51007;DHT22;37034;47.886;-3.904;2023-04-06T03:33:25;14.50;95.70
51007;DHT22;37034;47.886;-3.904;2023-04-06T03:35:53;14.50;95.80
51007;DHT22;37034;47.886;-3.904;2023-04-06T03:38:19;14.50;95.80
51007;DHT22;37034;47.886;-3.904;2023-04-06T03:40:44;14.50;95.80
51007;DHT22;37034;47.886;-3.904;2023-04-06T03:43:10;14.50;95.90
51007;DHT22;37034;47.886;-3.904;2023-04-06T03:45:36;14.60;95.90
51007;DHT22;37034;47.886;-3.904;2023-04-06T03:48:02;14.60;95.80
51007;DHT22;37034;47.886;-3.904;2023-04-06T03:50:28;14.50;95.90
51007;DHT22;37034;47.886;-3.904;2023-04-06T03:52:54;14.60;95.90
51007;DHT22;37034;47.886;-3.904;2023-04-06T03:55:19;14.60;96.00
51007;DHT22;37034;47.886;-3.904;2023-04-06T03:57:45;14.60;96.00
51007;DHT22;37034;47.886;-3.904;2023-04-06T04:00:11;14.60;96.00
51007;DHT22;37034;47.886;-3.904;2023-04-06T04:02:37;14.60;96.00
51007;DHT22;37034;47.886;-3.904;2023-04-06T04:05:03;14.60;96.30
51007;DHT22;37034;47.886;-3.904;2023-04-06T04:07:29;14.60;96.00
51007;DHT22;37034;47.886;-3.904;2023-04-06T04:09:55;14.70;96.10
51007;DHT22;37034;47.886;-3.904;2023-04-06T04:12:20;14.70;96.10
51007;DHT22;37034;47.886;-3.904;2023-04-06T04:14:46;14.70;96.10
51007;DHT22;37034;47.886;-3.904;2023-04-06T04:17:12;14.70;96.20
51007;DHT22;37034;47.886;-3.904;2023-04-06T04:19:37;14.70;96.20
51007;DHT22;37034;47.886;-3.904;2023-04-06T04:22:03;14.70;96.20
51007;DHT22;37034;47.886;-3.904;2023-04-06T04:24:30;14.70;96.20
51007;DHT22;37034;47.886;-3.904;2023-04-06T04:26:56;14.70;96.30
51007;DHT22;37034;47.886;-3.904;2023-04-06T04:29:22;14.70;96.30
51007;DHT22;37034;47.886;-3.904;2023-04-06T04:31:49;14.70;96.30
51007;DHT22;37034;47.886;-3.904;2023-04-06T04:34:15;14.70;96.30
51007;DHT22;37034;47.886;-3.904;2023-04-06T04:36:41;14.80;96.90
51007;DHT22;37034;47.886;-3.904;2023-04-06T04:39:09;14.80;96.40
51007;DHT22;37034;47.886;-3.904;2023-04-06T04:41:35;14.80;96.40
51007;DHT22;37034;47.886;-3.904;2023-04-06T04:44:00;14.80;96.40
51007;DHT22;37034;47.886;-3.904;2023-04-06T04:46:26;14.80;96.50
51007;DHT22;37034;47.886;-3.904;2023-04-06T04:48:52;14.80;96.50
51007;DHT22;37034;47.886;-3.904;2023-04-06T04:51:17;14.80;96.50
51007;DHT22;37034;47.886;-3.904;2023-04-06T04:53:45;14.80;96.50
51007;DHT22;37034;47.886;-3.904;2023-04-06T04:56:10;14.80;96.60
51007;DHT22;37034;47.886;-3.904;2023-04-06T04:58:36;14.80;96.70
51007;DHT22;37034;47.886;-3.904;2023-04-06T05:01:02;14.80;96.60
51007;DHT22;37034;47.886;-3.904;2023-04-06T05:03:28;14.80;96.90
51007;DHT22;37034;47.886;-3.904;2023-04-06T05:05:54;14.80;96.70
51007;DHT22;37034;47.886;-3.904;2023-04-06T05:08:20;14.80;96.70
51007;DHT22;37034;47.886;-3.904;2023-04-06T05:10:45;14.80;96.70
51007;DHT22;37034;47.886;-3.904;2023-04-06T05:13:12;14.80;96.70
51007;DHT22;37034;47.886;-3.904;2023-04-06T05:15:37;14.80;96.70
51007;DHT22;37034;47.886;-3.904;2023-04-06T05:18:07;14.80;96.80
51007;DHT22;37034;47.886;-3.904;2023-04-06T05:20:33;14.80;96.70
51007;DHT22;37034;47.886;-3.904;2023-04-06T05:22:59;14.90;96.80
51007;DHT22;37034;47.886;-3.904;2023-04-06T05:25:25;14.80;96.80
51007;DHT22;37034;47.886;-3.904;2023-04-06T05:27:51;14.80;96.90
51007;DHT22;37034;47.886;-3.904;2023-04-06T05:30:17;14.90;96.80
51007;DHT22;37034;47.886;-3.904;2023-04-06T05:32:43;14.90;96.90
51007;DHT22;37034;47.886;-3.904;2023-04-06T05:35:10;14.90;97.00
51007;DHT22;37034;47.886;-3.904;2023-04-06T05:37:36;14.90;97.10
51007;DHT22;37034;47.886;-3.904;2023-04-06T05:40:02;14.80;97.00
51007;DHT22;37034;47.886;-3.904;2023-04-06T05:42:32;14.90;97.00
51007;DHT22;37034;47.886;-3.904;2023-04-06T05:45:02;14.90;97.10
51007;DHT22;37034;47.886;-3.904;2023-04-06T05:47:27;14.90;97.10
51007;DHT22;37034;47.886;-3.904;2023-04-06T05:49:53;14.90;97.10
51007;DHT22;37034;47.886;-3.904;2023-04-06T05:52:19;14.90;97.10
51007;DHT22;37034;47.886;-3.904;2023-04-06T05:54:45;14.90;97.20
51007;DHT22;37034;47.886;-3.904;2023-04-06T05:57:10;14.90;97.00
51007;DHT22;37034;47.886;-3.904;2023-04-06T05:59:36;14.90;97.10
51007;DHT22;37034;47.886;-3.904;2023-04-06T06:02:02;14.90;97.20
51007;DHT22;37034;47.886;-3.904;2023-04-06T06:04:27;15.00;97.20
51007;DHT22;37034;47.886;-3.904;2023-04-06T06:06:53;15.00;97.20
51007;DHT22;37034;47.886;-3.904;2023-04-06T06:09:19;15.00;97.30
51007;DHT22;37034;47.886;-3.904;2023-04-06T06:11:44;15.00;97.30
51007;DHT22;37034;47.886;-3.904;2023-04-06T06:14:10;15.00;97.30
51007;DHT22;37034;47.886;-3.904;2023-04-06T06:16:36;15.00;97.30
51007;DHT22;37034;47.886;-3.904;2023-04-06T06:19:02;15.00;97.40
51007;DHT22;37034;47.886;-3.904;2023-04-06T06:21:27;15.00;97.50
51007;DHT22;37034;47.886;-3.904;2023-04-06T06:23:53;15.00;97.40
51007;DHT22;37034;47.886;-3.904;2023-04-06T06:26:20;15.00;97.40
51007;DHT22;37034;47.886;-3.904;2023-04-06T06:28:45;15.00;97.50
51007;DHT22;37034;47.886;-3.904;2023-04-06T06:31:11;15.10;97.60
51007;DHT22;37034;47.886;-3.904;2023-04-06T06:33:37;15.10;97.60
51007;DHT22;37034;47.886;-3.904;2023-04-06T06:36:03;15.10;97.60
51007;DHT22;37034;47.886;-3.904;2023-04-06T06:38:29;15.10;97.60
51007;DHT22;37034;47.886;-3.904;2023-04-06T06:40:54;15.10;97.60
51007;DHT22;37034;47.886;-3.904;2023-04-06T06:43:20;15.20;97.70
51007;DHT22;37034;47.886;-3.904;2023-04-06T06:45:46;15.10;97.70
51007;DHT22;37034;47.886;-3.904;2023-04-06T06:48:11;15.20;97.70
51007;DHT22;37034;47.886;-3.904;2023-04-06T06:50:37;15.20;97.70
51007;DHT22;37034;47.886;-3.904;2023-04-06T06:53:03;15.20;97.80
51007;DHT22;37034;47.886;-3.904;2023-04-06T06:55:29;15.20;97.90
51007;DHT22;37034;47.886;-3.904;2023-04-06T06:57:54;15.20;97.80
51007;DHT22;37034;47.886;-3.904;2023-04-06T07:00:20;15.20;97.90
51007;DHT22;37034;47.886;-3.904;2023-04-06T07:02:47;15.20;97.80
51007;DHT22;37034;47.886;-3.904;2023-04-06T07:05:13;15.30;97.90
51007;DHT22;37034;47.886;-3.904;2023-04-06T07:07:39;15.20;97.90
51007;DHT22;37034;47.886;-3.904;2023-04-06T07:10:05;15.30;98.00
51007;DHT22;37034;47.886;-3.904;2023-04-06T07:12:31;15.30;98.00
51007;DHT22;37034;47.886;-3.904;2023-04-06T07:14:57;15.30;98.10
51007;DHT22;37034;47.886;-3.904;2023-04-06T07:17:22;15.30;98.00
51007;DHT22;37034;47.886;-3.904;2023-04-06T07:19:48;15.30;98.00
51007;DHT22;37034;47.886;-3.904;2023-04-06T07:22:14;15.40;98.10
51007;DHT22;37034;47.886;-3.904;2023-04-06T07:24:40;15.40;98.00
51007;DHT22;37034;47.886;-3.904;2023-04-06T07:27:06;15.40;98.20
51007;DHT22;37034;47.886;-3.904;2023-04-06T07:29:31;15.40;98.10
51007;DHT22;37034;47.886;-3.904;2023-04-06T07:31:57;15.40;98.30
51007;DHT22;37034;47.886;-3.904;2023-04-06T07:34:23;15.40;98.20
51007;DHT22;37034;47.886;-3.904;2023-04-06T07:36:48;15.50;98.30
51007;DHT22;37034;47.886;-3.904;2023-04-06T07:39:14;15.50;98.30
51007;DHT22;37034;47.886;-3.904;2023-04-06T07:41:40;15.50;98.20
51007;DHT22;37034;47.886;-3.904;2023-04-06T07:44:06;15.50;98.20
51007;DHT22;37034;47.886;-3.904;2023-04-06T07:46:32;15.50;98.30
51007;DHT22;37034;47.886;-3.904;2023-04-06T07:48:59;15.40;98.20
51007;DHT22;37034;47.886;-3.904;2023-04-06T07:51:26;15.50;98.20
51007;DHT22;37034;47.886;-3.904;2023-04-06T07:53:52;15.50;98.20
51007;DHT22;37034;47.886;-3.904;2023-04-06T07:56:18;15.50;98.30
51007;DHT22;37034;47.886;-3.904;2023-04-06T07:58:44;15.50;98.30
51007;DHT22;37034;47.886;-3.904;2023-04-06T08:01:09;15.50;98.40
51007;DHT22;37034;47.886;-3.904;2023-04-06T08:03:35;15.60;98.30
51007;DHT22;37034;47.886;-3.904;2023-04-06T08:06:02;15.60;98.30
51007;DHT22;37034;47.886;-3.904;2023-04-06T08:08:28;15.60;98.40
51007;DHT22;37034;47.886;-3.904;2023-04-06T08:10:54;15.60;98.40
51007;DHT22;37034;47.886;-3.904;2023-04-06T08:13:20;15.60;98.50
51007;DHT22;37034;47.886;-3.904;2023-04-06T08:15:46;15.60;98.60
51007;DHT22;37034;47.886;-3.904;2023-04-06T08:18:12;15.60;98.70
51007;DHT22;37034;47.886;-3.904;2023-04-06T08:20:39;15.70;98.80
51007;DHT22;37034;47.886;-3.904;2023-04-06T08:23:04;15.80;98.70
51007;DHT22;37034;47.886;-3.904;2023-04-06T08:25:33;15.80;98.70
51007;DHT22;37034;47.886;-3.904;2023-04-06T08:27:59;15.90;98.60
51007;DHT22;37034;47.886;-3.904;2023-04-06T08:30:25;15.50;98.60
51007;DHT22;37034;47.886;-3.904;2023-04-06T08:32:50;15.50;98.80
51007;DHT22;37034;47.886;-3.904;2023-04-06T08:35:16;15.60;98.70
51007;DHT22;37034;47.886;-3.904;2023-04-06T08:37:42;15.60;98.80
51007;DHT22;37034;47.886;-3.904;2023-04-06T08:40:08;15.60;98.50
51007;DHT22;37034;47.886;-3.904;2023-04-06T08:42:40;15.60;98.50
51007;DHT22;37034;47.886;-3.904;2023-04-06T08:45:09;15.60;98.20
51007;DHT22;37034;47.886;-3.904;2023-04-06T08:47:36;15.50;98.20
51007;DHT22;37034;47.886;-3.904;2023-04-06T08:50:04;15.50;98.20
51007;DHT22;37034;47.886;-3.904;2023-04-06T08:52:31;15.50;98.20
51007;DHT22;37034;47.886;-3.904;2023-04-06T08:54:57;15.60;98.20
51007;DHT22;37034;47.886;-3.904;2023-04-06T08:57:24;15.60;98.40
51007;DHT22;37034;47.886;-3.904;2023-04-06T08:59:51;15.70;98.50
51007;DHT22;37034;47.886;-3.904;2023-04-06T09:02:18;15.80;98.50
51007;DHT22;37034;47.886;-3.904;2023-04-06T09:04:48;15.90;98.10
51007;DHT22;37034;47.886;-3.904;2023-04-06T09:07:15;15.90;98.20
51007;DHT22;37034;47.886;-3.904;2023-04-06T09:09:41;15.90;98.00
51007;DHT22;37034;47.886;-3.904;2023-04-06T09:12:25;16.00;98.30
51007;DHT22;37034;47.886;-3.904;2023-04-06T09:14:52;16.10;98.50
51007;DHT22;37034;47.886;-3.904;2023-04-06T09:17:26;16.20;98.40
51007;DHT22;37034;47.886;-3.904;2023-04-06T09:19:52;16.30;98.40
51007;DHT22;37034;47.886;-3.904;2023-04-06T09:22:19;16.40;98.10
51007;DHT22;37034;47.886;-3.904;2023-04-06T09:24:52;16.30;96.60
51007;DHT22;37034;47.886;-3.904;2023-04-06T09:27:31;16.10;97.60
51007;DHT22;37034;47.886;-3.904;2023-04-06T09:30:07;16.20;97.80
51007;DHT22;37034;47.886;-3.904;2023-04-06T09:32:48;16.30;97.90
51007;DHT22;37034;47.886;-3.904;2023-04-06T09:35:14;16.30;97.60
51007;DHT22;37034;47.886;-3.904;2023-04-06T09:37:41;16.40;97.80
51007;DHT22;37034;47.886;-3.904;2023-04-06T09:40:07;16.50;97.90
51007;DHT22;37034;47.886;-3.904;2023-04-06T09:42:34;16.60;97.70
51007;DHT22;37034;47.886;-3.904;2023-04-06T09:45:03;16.70;97.70
51007;DHT22;37034;47.886;-3.904;2023-04-06T09:47:30;16.80;97.80
51007;DHT22;37034;47.886;-3.904;2023-04-06T09:49:58;16.90;97.50
51007;DHT22;37034;47.886;-3.904;2023-04-06T09:52:37;16.90;96.60
51007;DHT22;37034;47.886;-3.904;2023-04-06T09:55:05;16.80;96.90
51007;DHT22;37034;47.886;-3.904;2023-04-06T10:00:17;16.30;94.30
51007;DHT22;37034;47.886;-3.904;2023-04-06T10:03:05;16.10;95.50
51007;DHT22;37034;47.886;-3.904;2023-04-06T10:05:47;16.00;96.10
51007;DHT22;37034;47.886;-3.904;2023-04-06T10:08:16;16.20;96.20
51007;DHT22;37034;47.886;-3.904;2023-04-06T10:10:43;16.30;96.30
51007;DHT22;37034;47.886;-3.904;2023-04-06T10:13:11;16.30;96.00
51007;DHT22;37034;47.886;-3.904;2023-04-06T10:15:38;16.40;96.30
51007;DHT22;37034;47.886;-3.904;2023-04-06T10:18:05;16.50;96.00
51007;DHT22;37034;47.886;-3.904;2023-04-06T10:23:15;16.70;96.40
51007;DHT22;37034;47.886;-3.904;2023-04-06T10:28:19;17.10;96.20
51007;DHT22;37034;47.886;-3.904;2023-04-06T10:30:45;17.20;96.50
51007;DHT22;37034;47.886;-3.904;2023-04-06T10:33:14;17.40;96.10
51007;DHT22;37034;47.886;-3.904;2023-04-06T10:35:40;17.60;95.60
51007;DHT22;37034;47.886;-3.904;2023-04-06T10:38:06;17.50;95.40
51007;DHT22;37034;47.886;-3.904;2023-04-06T10:40:36;17.40;95.20
51007;DHT22;37034;47.886;-3.904;2023-04-06T10:43:09;17.50;95.40
51007;DHT22;37034;47.886;-3.904;2023-04-06T10:45:36;17.70;95.40
51007;DHT22;37034;47.886;-3.904;2023-04-06T10:48:23;17.80;95.30
51007;DHT22;37034;47.886;-3.904;2023-04-06T10:50:51;17.90;94.70
51007;DHT22;37034;47.886;-3.904;2023-04-06T10:53:27;18.00;95.40
51007;DHT22;37034;47.886;-3.904;2023-04-06T10:55:56;18.10;94.30
51007;DHT22;37034;47.886;-3.904;2023-04-06T10:58:26;18.10;94.50
51007;DHT22;37034;47.886;-3.904;2023-04-06T11:00:54;18.20;94.50
51007;DHT22;37034;47.886;-3.904;2023-04-06T11:03:20;18.20;94.20
51007;DHT22;37034;47.886;-3.904;2023-04-06T11:05:47;18.20;94.50
51007;DHT22;37034;47.886;-3.904;2023-04-06T11:08:26;18.40;93.50
51007;DHT22;37034;47.886;-3.904;2023-04-06T11:11:14;18.20;92.70
51007;DHT22;37034;47.886;-3.904;2023-04-06T11:13:51;18.20;93.30
51007;DHT22;37034;47.886;-3.904;2023-04-06T11:16:19;18.10;93.10
51007;DHT22;37034;47.886;-3.904;2023-04-06T11:21:18;18.10;93.30
51007;DHT22;37034;47.886;-3.904;2023-04-06T11:23:43;18.10;93.20
51007;DHT22;37034;47.886;-3.904;2023-04-06T11:26:13;18.10;93.00
51007;DHT22;37034;47.886;-3.904;2023-04-06T11:28:41;18.00;92.60
51007;DHT22;37034;47.886;-3.904;2023-04-06T11:31:08;18.00;93.20
51007;DHT22;37034;47.886;-3.904;2023-04-06T11:33:37;17.90;93.20
51007;DHT22;37034;47.886;-3.904;2023-04-06T11:36:04;17.80;93.30
51007;DHT22;37034;47.886;-3.904;2023-04-06T11:38:31;17.90;93.70
51007;DHT22;37034;47.886;-3.904;2023-04-06T11:40:57;18.10;94.10
51007;DHT22;37034;47.886;-3.904;2023-04-06T11:43:27;18.10;93.80
51007;DHT22;37034;47.886;-3.904;2023-04-06T11:46:02;18.30;93.80
51007;DHT22;37034;47.886;-3.904;2023-04-06T11:48:29;18.40;93.10
51007;DHT22;37034;47.886;-3.904;2023-04-06T11:50:56;18.50;92.70
51007;DHT22;37034;47.886;-3.904;2023-04-06T11:53:23;18.60;92.70
51007;DHT22;37034;47.886;-3.904;2023-04-06T11:55:48;18.80;93.70
51007;DHT22;37034;47.886;-3.904;2023-04-06T11:58:14;19.10;92.30
51007;DHT22;37034;47.886;-3.904;2023-04-06T12:00:40;19.20;92.20
51007;DHT22;37034;47.886;-3.904;2023-04-06T12:03:13;19.20;91.90
51007;DHT22;37034;47.886;-3.904;2023-04-06T12:05:39;19.10;91.60
51007;DHT22;37034;47.886;-3.904;2023-04-06T12:08:05;19.00;91.40
51007;DHT22;37034;47.886;-3.904;2023-04-06T12:10:31;19.10;90.80
51007;DHT22;37034;47.886;-3.904;2023-04-06T12:12:56;18.90;89.90
51007;DHT22;37034;47.886;-3.904;2023-04-06T12:15:22;18.60;90.50
51007;DHT22;37034;47.886;-3.904;2023-04-06T12:17:48;18.60;91.00
51007;DHT22;37034;47.886;-3.904;2023-04-06T12:20:15;18.60;90.40
51007;DHT22;37034;47.886;-3.904;2023-04-06T12:22:40;18.60;89.80
51007;DHT22;37034;47.886;-3.904;2023-04-06T12:25:06;18.70;90.30
51007;DHT22;37034;47.886;-3.904;2023-04-06T12:27:32;18.80;90.60
51007;DHT22;37034;47.886;-3.904;2023-04-06T12:29:58;18.60;89.20
51007;DHT22;37034;47.886;-3.904;2023-04-06T12:32:24;18.40;88.80
51007;DHT22;37034;47.886;-3.904;2023-04-06T12:34:52;18.30;90.70
51007;DHT22;37034;47.886;-3.904;2023-04-06T12:37:17;18.50;90.20
51007;DHT22;37034;47.886;-3.904;2023-04-06T12:39:43;18.60;90.00
51007;DHT22;37034;47.886;-3.904;2023-04-06T12:42:10;18.70;90.10
51007;DHT22;37034;47.886;-3.904;2023-04-06T12:44:38;18.90;90.10
51007;DHT22;37034;47.886;-3.904;2023-04-06T12:47:03;18.80;89.70
51007;DHT22;37034;47.886;-3.904;2023-04-06T12:49:30;18.90;89.50
51007;DHT22;37034;47.886;-3.904;2023-04-06T12:51:55;18.90;88.00
51007;DHT22;37034;47.886;-3.904;2023-04-06T12:54:21;19.00;88.30
51007;DHT22;37034;47.886;-3.904;2023-04-06T12:56:47;19.00;89.90
51007;DHT22;37034;47.886;-3.904;2023-04-06T12:59:12;19.10;87.40
51007;DHT22;37034;47.886;-3.904;2023-04-06T13:01:38;19.20;88.50
51007;DHT22;37034;47.886;-3.904;2023-04-06T13:04:04;19.40;87.70
51007;DHT22;37034;47.886;-3.904;2023-04-06T13:06:29;19.60;87.50
51007;DHT22;37034;47.886;-3.904;2023-04-06T13:08:55;19.50;86.60
51007;DHT22;37034;47.886;-3.904;2023-04-06T13:11:21;19.40;87.70
51007;DHT22;37034;47.886;-3.904;2023-04-06T13:13:49;19.50;89.00
51007;DHT22;37034;47.886;-3.904;2023-04-06T13:16:15;19.80;87.50
51007;DHT22;37034;47.886;-3.904;2023-04-06T13:18:41;19.80;86.00
51007;DHT22;37034;47.886;-3.904;2023-04-06T13:21:07;19.80;85.50
51007;DHT22;37034;47.886;-3.904;2023-04-06T13:23:33;19.80;85.70
51007;DHT22;37034;47.886;-3.904;2023-04-06T13:26:08;19.80;85.20
51007;DHT22;37034;47.886;-3.904;2023-04-06T13:28:35;19.90;82.10
51007;DHT22;37034;47.886;-3.904;2023-04-06T13:31:03;19.80;83.80
51007;DHT22;37034;47.886;-3.904;2023-04-06T13:33:29;19.60;84.00
51007;DHT22;37034;47.886;-3.904;2023-04-06T13:35:55;19.70;84.70
51007;DHT22;37034;47.886;-3.904;2023-04-06T13:38:21;19.80;83.00
51007;DHT22;37034;47.886;-3.904;2023-04-06T13:40:47;19.80;82.10
51007;DHT22;37034;47.886;-3.904;2023-04-06T13:43:12;19.80;82.60
51007;DHT22;37034;47.886;-3.904;2023-04-06T13:45:38;19.90;81.60
51007;DHT22;37034;47.886;-3.904;2023-04-06T13:48:04;20.00;82.90
51007;DHT22;37034;47.886;-3.904;2023-04-06T13:50:31;20.00;82.50
51007;DHT22;37034;47.886;-3.904;2023-04-06T13:52:56;20.00;83.20
51007;DHT22;37034;47.886;-3.904;2023-04-06T13:55:22;20.10;80.40
51007;DHT22;37034;47.886;-3.904;2023-04-06T13:57:50;20.20;83.40
51007;DHT22;37034;47.886;-3.904;2023-04-06T14:00:16;20.50;83.60
51007;DHT22;37034;47.886;-3.904;2023-04-06T14:02:42;20.80;80.50
51007;DHT22;37034;47.886;-3.904;2023-04-06T14:05:08;20.70;80.50
51007;DHT22;37034;47.886;-3.904;2023-04-06T14:07:34;20.50;79.40
51007;DHT22;37034;47.886;-3.904;2023-04-06T14:10:00;20.40;81.00
51007;DHT22;37034;47.886;-3.904;2023-04-06T14:12:26;20.20;79.90
51007;DHT22;37034;47.886;-3.904;2023-04-06T14:14:52;20.20;80.40
51007;DHT22;37034;47.886;-3.904;2023-04-06T14:17:18;20.20;81.10
51007;DHT22;37034;47.886;-3.904;2023-04-06T14:19:43;20.10;81.40
51007;DHT22;37034;47.886;-3.904;2023-04-06T14:22:10;19.90;80.30
51007;DHT22;37034;47.886;-3.904;2023-04-06T14:24:36;20.00;80.50
51007;DHT22;37034;47.886;-3.904;2023-04-06T14:27:02;19.80;79.60
51007;DHT22;37034;47.886;-3.904;2023-04-06T14:29:28;19.60;79.30
51007;DHT22;37034;47.886;-3.904;2023-04-06T14:31:54;19.30;80.00
51007;DHT22;37034;47.886;-3.904;2023-04-06T14:34:28;19.40;80.40
51007;DHT22;37034;47.886;-3.904;2023-04-06T14:36:54;19.30;80.00
51007;DHT22;37034;47.886;-3.904;2023-04-06T14:39:20;19.20;80.00
51007;DHT22;37034;47.886;-3.904;2023-04-06T14:41:46;19.20;79.50
51007;DHT22;37034;47.886;-3.904;2023-04-06T14:44:13;19.20;81.00
51007;DHT22;37034;47.886;-3.904;2023-04-06T14:46:39;19.40;81.90
51007;DHT22;37034;47.886;-3.904;2023-04-06T14:49:05;19.60;81.20
51007;DHT22;37034;47.886;-3.904;2023-04-06T14:51:33;19.60;81.30
51007;DHT22;37034;47.886;-3.904;2023-04-06T14:54:00;19.70;81.30
51007;DHT22;37034;47.886;-3.904;2023-04-06T14:56:25;19.70;80.70
51007;DHT22;37034;47.886;-3.904;2023-04-06T14:58:51;19.70;80.10
51007;DHT22;37034;47.886;-3.904;2023-04-06T15:01:20;19.70;80.40
51007;DHT22;37034;47.886;-3.904;2023-04-06T15:03:46;19.60;79.70
51007;DHT22;37034;47.886;-3.904;2023-04-06T15:06:13;19.40;80.40
51007;DHT22;37034;47.886;-3.904;2023-04-06T15:08:42;19.30;80.90
51007;DHT22;37034;47.886;-3.904;2023-04-06T15:11:09;19.30;78.70
51007;DHT22;37034;47.886;-3.904;2023-04-06T15:13:35;19.20;78.00
51007;DHT22;37034;47.886;-3.904;2023-04-06T15:16:00;19.00;78.30
51007;DHT22;37034;47.886;-3.904;2023-04-06T15:18:26;18.90;79.40
51007;DHT22;37034;47.886;-3.904;2023-04-06T15:20:52;19.00;80.10
51007;DHT22;37034;47.886;-3.904;2023-04-06T15:23:17;19.10;80.00